createdAt,value
2022-12-16T00:01:09.705Z,-1.65
2022-12-16T00:03:39.352Z,-1.57
2022-12-16T00:06:08.402Z,-1.64
2022-12-16T00:08:38.705Z,-1.62
2022-12-16T00:11:07.640Z,-1.60
2022-12-16T00:13:37.736Z,-1.76
2022-12-16T00:16:06.985Z,-1.60
2022-12-16T00:18:36.310Z,-1.59
2022-12-16T00:21:06.196Z,-1.56
2022-12-16T00:23:35.492Z,-1.60
2022-12-16T00:26:04.051Z,-1.57
2022-12-16T00:28:32.108Z,-1.66
2022-12-16T00:30:59.754Z,-1.72
2022-12-16T00:33:29.308Z,-1.70
2022-12-16T00:35:57.845Z,-1.74
2022-12-16T00:38:28.043Z,-1.72
2022-12-16T00:40:55.772Z,-1.73
2022-12-16T00:43:23.569Z,-1.68
2022-12-16T00:45:51.908Z,-1.65
2022-12-16T00:48:22.945Z,-1.72
2022-12-16T00:50:52.058Z,-1.69
2022-12-16T00:53:19.903Z,-1.68
2022-12-16T00:55:49.176Z,-1.71
2022-12-16T00:58:17.012Z,-1.73
2022-12-16T01:00:44.804Z,-1.68
2022-12-16T01:03:15.571Z,-1.68
2022-12-16T01:05:47.278Z,-1.72
2022-12-16T01:08:14.986Z,-1.71
2022-12-16T01:10:42.616Z,-1.67
2022-12-16T01:13:12.349Z,-1.82
2022-12-16T01:15:40.621Z,-1.74
2022-12-16T01:18:08.342Z,-1.67
2022-12-16T01:20:36.037Z,-1.82
2022-12-16T01:23:03.670Z,-1.82
2022-12-16T01:25:31.600Z,-1.81
2022-12-16T01:27:59.243Z,-1.77
2022-12-16T01:30:28.316Z,-1.70
2022-12-16T01:32:55.971Z,-1.68
2022-12-16T01:35:52.031Z,-1.65
2022-12-16T01:38:11.247Z,-1.68
2022-12-16T01:40:38.885Z,-1.64
2022-12-16T01:43:12.512Z,-1.62
2022-12-16T01:45:41.828Z,-1.61
2022-12-16T01:48:20.979Z,-1.71
2022-12-16T01:50:50.277Z,-1.72
2022-12-16T01:53:18.103Z,-1.75
2022-12-16T01:55:49.937Z,-1.77
2022-12-16T01:58:22.357Z,-1.83
2022-12-16T02:03:36.698Z,-1.82
2022-12-16T02:06:06.539Z,-1.79
2022-12-16T02:08:34.269Z,-1.78
2022-12-16T02:11:29.250Z,-1.76
2022-12-16T02:14:16.121Z,-1.83
2022-12-16T02:16:52.572Z,-1.79
2022-12-16T02:19:52.438Z,-1.82
2022-12-16T02:22:32.711Z,-1.89
2022-12-16T02:25:29.477Z,-1.90
2022-12-16T02:28:04.508Z,-2.00
2022-12-16T02:30:53.069Z,-2.09
2022-12-16T02:33:36.210Z,-2.02
2022-12-16T02:36:12.339Z,-1.93
2022-12-16T02:38:47.007Z,-2.05
2022-12-16T02:41:22.880Z,-1.89
2022-12-16T02:43:55.668Z,-1.93
2022-12-16T02:46:28.018Z,-1.96
2022-12-16T02:48:55.976Z,-1.95
2022-12-16T02:51:27.063Z,-1.99
2022-12-16T02:53:56.039Z,-2.04
2022-12-16T02:56:39.830Z,-2.11
2022-12-16T02:59:18.777Z,-2.04
2022-12-16T03:01:55.043Z,-2.09
2022-12-16T03:04:30.208Z,-2.14
2022-12-16T03:07:01.560Z,-2.08
2022-12-16T03:09:33.910Z,-2.08
2022-12-16T03:12:05.067Z,-2.11
2022-12-16T03:14:35.395Z,-2.11
2022-12-16T03:17:05.621Z,-2.14
2022-12-16T03:19:33.255Z,-2.15
2022-12-16T03:22:05.308Z,-2.21
2022-12-16T03:24:34.075Z,-2.17
2022-12-16T03:27:09.681Z,-2.22
2022-12-16T03:29:43.507Z,-2.27
2022-12-16T03:32:16.574Z,-2.25
2022-12-16T03:34:50.824Z,-2.23
2022-12-16T03:37:21.356Z,-2.25
2022-12-16T03:39:52.315Z,-2.23
2022-12-16T03:42:20.030Z,-2.20
2022-12-16T03:44:48.802Z,-2.26
2022-12-16T03:47:23.389Z,-2.22
2022-12-16T03:49:51.658Z,-2.27
2022-12-16T03:52:19.345Z,-2.21
2022-12-16T03:54:46.969Z,-2.21
2022-12-16T03:57:15.759Z,-2.21
2022-12-16T03:59:43.729Z,-2.25
2022-12-16T04:02:11.595Z,-2.21
2022-12-16T04:04:40.690Z,-2.21
2022-12-16T04:07:24.676Z,-2.22
2022-12-16T04:09:53.617Z,-2.28
2022-12-16T04:12:39.506Z,-2.26
2022-12-16T04:15:25.968Z,-2.21
2022-12-16T04:18:11.716Z,-2.17
2022-12-16T04:21:01.874Z,-2.12
2022-12-16T04:23:49.424Z,-2.19
2022-12-16T04:26:17.384Z,-2.24
2022-12-16T04:28:45.192Z,-2.16
2022-12-16T04:31:12.980Z,-2.14
2022-12-16T04:34:01.407Z,-2.12
2022-12-16T04:36:48.068Z,-2.12
2022-12-16T04:39:33.274Z,-2.12
2022-12-16T04:42:18.824Z,-2.17
2022-12-16T04:45:04.132Z,-2.17
2022-12-16T04:47:54.141Z,-2.15
2022-12-16T04:50:42.311Z,-2.19
2022-12-16T04:53:29.300Z,-2.17
2022-12-16T04:56:13.901Z,-2.16
2022-12-16T04:58:59.547Z,-2.15
2022-12-16T05:01:44.832Z,-2.19
2022-12-16T05:04:30.194Z,-2.14
2022-12-16T05:07:15.546Z,-2.16
2022-12-16T05:10:02.167Z,-2.10
2022-12-16T05:12:47.528Z,-2.26
2022-12-16T05:15:32.946Z,-2.17
2022-12-16T05:18:18.387Z,-2.24
2022-12-16T05:21:04.003Z,-2.27
2022-12-16T05:23:49.335Z,-2.32
2022-12-16T05:26:36.073Z,-2.26
2022-12-16T05:29:21.514Z,-2.21
2022-12-16T05:32:15.247Z,-2.33
2022-12-16T05:35:00.597Z,-2.24
2022-12-16T05:37:46.228Z,-2.22
2022-12-16T05:40:31.504Z,-2.26
2022-12-16T05:43:17.851Z,-2.18
2022-12-16T05:46:03.442Z,-2.21
2022-12-16T05:48:48.717Z,-2.20
2022-12-16T05:51:36.399Z,-2.14
2022-12-16T05:54:21.723Z,-2.26
2022-12-16T05:57:07.167Z,-2.18
2022-12-16T05:59:53.825Z,-2.21
2022-12-16T06:02:39.351Z,-2.13
2022-12-16T06:05:25.268Z,-2.12
2022-12-16T06:08:10.693Z,-2.19
2022-12-16T06:10:55.994Z,-2.11
2022-12-16T06:13:41.303Z,-2.06
2022-12-16T06:16:27.903Z,-2.04
2022-12-16T06:19:13.115Z,-2.03
2022-12-16T06:21:58.407Z,-2.03
2022-12-16T06:24:43.751Z,-2.08
2022-12-16T06:27:29.083Z,-2.06
2022-12-16T06:30:22.744Z,-2.04
2022-12-16T06:33:09.472Z,-2.05
2022-12-16T06:35:54.893Z,-2.03
2022-12-16T06:38:40.386Z,-2.06
2022-12-16T06:41:25.729Z,-1.97
2022-12-16T06:44:11.224Z,-1.98
2022-12-16T06:46:56.591Z,-1.96
2022-12-16T06:49:43.082Z,-1.98
2022-12-16T06:52:42.983Z,-1.93
2022-12-16T06:55:28.424Z,-1.79
2022-12-16T06:58:16.098Z,-1.80
2022-12-16T07:01:01.421Z,-1.81
2022-12-16T07:03:46.582Z,-1.80
2022-12-16T07:06:33.468Z,-1.83
2022-12-16T07:09:18.781Z,-1.86
2022-12-16T07:12:04.114Z,-1.85
2022-12-16T07:14:49.338Z,-1.79
2022-12-16T07:17:34.637Z,-1.82
2022-12-16T07:20:19.978Z,-1.87
2022-12-16T07:23:13.079Z,-1.91
2022-12-16T07:26:01.317Z,-1.89
2022-12-16T07:28:46.750Z,-1.83
2022-12-16T07:31:32.328Z,-1.83
2022-12-16T07:34:17.986Z,-1.86
2022-12-16T07:37:03.366Z,-1.85
2022-12-16T07:39:54.847Z,-1.86
2022-12-16T07:42:41.042Z,-1.88
2022-12-16T07:45:27.487Z,-1.82
2022-12-16T07:48:12.677Z,-1.77
2022-12-16T07:50:58.063Z,-1.79
2022-12-16T07:53:44.047Z,-1.71
2022-12-16T07:56:31.203Z,-1.74
2022-12-16T07:59:16.435Z,-1.87
2022-12-16T08:02:02.296Z,-1.80
2022-12-16T08:04:47.502Z,-1.71
2022-12-16T08:07:32.945Z,-1.71
2022-12-16T08:10:18.448Z,-1.66
2022-12-16T08:13:05.171Z,-1.71
2022-12-16T08:15:50.686Z,-1.69
2022-12-16T08:18:36.030Z,-1.62
2022-12-16T08:21:21.145Z,-1.70
2022-12-16T08:24:06.513Z,-1.68
2022-12-16T08:26:51.885Z,-1.57
2022-12-16T08:29:44.604Z,-1.50
2022-12-16T08:32:30.835Z,-1.52
2022-12-16T08:35:16.152Z,-1.55
2022-12-16T08:38:01.584Z,-1.43
2022-12-16T08:40:46.903Z,-1.31
2022-12-16T08:43:33.184Z,-1.30
2022-12-16T08:46:20.418Z,-1.24
2022-12-16T08:49:05.857Z,-1.20
2022-12-16T08:51:51.160Z,-1.24
2022-12-16T08:54:36.473Z,-1.24
2022-12-16T08:57:21.700Z,-1.23
2022-12-16T09:00:07.054Z,-1.22
2022-12-16T09:02:57.079Z,-1.24
2022-12-16T09:05:42.320Z,-1.14
2022-12-16T09:08:27.701Z,-1.13
2022-12-16T09:11:12.924Z,-1.07
2022-12-16T09:13:58.279Z,-1.01
2022-12-16T09:16:43.997Z,-1.01
2022-12-16T09:19:30.383Z,-1.00
2022-12-16T09:22:15.768Z,-0.98
2022-12-16T09:25:01.135Z,-0.99
2022-12-16T09:27:46.423Z,-0.95
2022-12-16T09:30:32.004Z,-0.94
2022-12-16T09:33:32.364Z,-1.00
2022-12-16T09:36:19.049Z,-0.91
2022-12-16T09:39:04.162Z,-0.83
2022-12-16T09:42:00.533Z,-0.59
2022-12-16T09:45:00.987Z,-0.66
2022-12-16T09:47:53.740Z,-0.48
2022-12-16T09:50:43.104Z,-0.34
2022-12-16T09:53:33.632Z,-0.45
2022-12-16T09:56:21.315Z,-0.32
2022-12-16T09:59:12.423Z,-0.38
2022-12-16T10:01:58.037Z,-0.61
2022-12-16T10:04:46.560Z,-0.66
2022-12-16T10:07:36.566Z,-0.85
2022-12-16T10:10:36.716Z,-1.17
2022-12-16T10:13:32.423Z,-1.19
2022-12-16T10:16:29.131Z,-1.08
2022-12-16T10:19:22.434Z,-1.05
2022-12-16T10:22:19.397Z,-0.90
2022-12-16T10:25:14.578Z,-0.73
2022-12-16T10:28:04.771Z,-0.78
2022-12-16T10:30:52.570Z,-0.83
2022-12-16T10:33:40.387Z,-0.71
2022-12-16T10:36:32.843Z,-0.61
2022-12-16T10:39:21.230Z,-0.61
2022-12-16T10:42:11.150Z,-0.64
2022-12-16T10:45:05.984Z,-0.38
2022-12-16T10:47:53.655Z,-0.37
2022-12-16T10:50:39.205Z,-0.51
2022-12-16T10:53:32.954Z,-0.53
2022-12-16T10:56:30.339Z,-0.58
2022-12-16T10:59:20.391Z,-0.64
2022-12-16T11:02:17.583Z,-0.75
2022-12-16T11:05:04.009Z,-0.95
2022-12-16T11:07:55.347Z,-1.10
2022-12-16T11:10:50.364Z,-1.12
2022-12-16T11:13:45.103Z,-1.13
2022-12-16T11:16:36.298Z,-1.26
2022-12-16T11:19:23.894Z,-1.07
2022-12-16T11:22:09.083Z,-1.07
2022-12-16T11:24:55.011Z,-1.02
2022-12-16T11:27:42.975Z,-1.10
2022-12-16T11:30:40.408Z,-1.10
2022-12-16T11:33:33.760Z,-1.14
2022-12-16T11:36:32.904Z,-1.02
2022-12-16T11:39:30.203Z,-1.02
2022-12-16T11:42:15.429Z,-1.03
2022-12-16T11:45:03.691Z,-1.00
2022-12-16T11:47:56.003Z,-1.02
2022-12-16T11:50:45.321Z,-1.03
2022-12-16T11:53:48.155Z,-1.06
2022-12-16T11:56:36.256Z,-0.99
2022-12-16T11:59:30.520Z,-0.97
2022-12-16T12:02:20.065Z,-0.98
2022-12-16T12:05:07.746Z,-1.17
2022-12-16T12:08:01.552Z,-1.16
2022-12-16T12:11:08.571Z,-1.15
2022-12-16T12:14:05.210Z,-1.09
2022-12-16T12:17:02.758Z,-1.23
2022-12-16T12:19:54.786Z,-1.15
2022-12-16T12:23:03.660Z,-1.13
2022-12-16T12:25:57.083Z,-1.11
2022-12-16T12:28:54.678Z,-1.18
2022-12-16T12:31:53.073Z,-1.25
2022-12-16T12:34:45.078Z,-1.18
2022-12-16T12:37:39.502Z,-1.26
2022-12-16T12:40:42.729Z,-1.32
2022-12-16T12:43:42.697Z,-1.28
2022-12-16T12:46:36.570Z,-1.17
2022-12-16T12:49:33.252Z,-1.20
2022-12-16T12:52:25.246Z,-1.21
2022-12-16T12:55:17.146Z,-1.37
2022-12-16T12:58:06.664Z,-1.21
2022-12-16T13:00:58.683Z,-1.19
2022-12-16T13:04:00.717Z,-1.21
2022-12-16T13:06:47.081Z,-1.14
2022-12-16T13:09:44.315Z,-1.35
2022-12-16T13:12:47.974Z,-1.28
2022-12-16T13:15:54.236Z,-1.26
2022-12-16T13:18:45.588Z,-1.21
2022-12-16T13:22:02.413Z,-1.40
2022-12-16T13:25:03.449Z,-1.42
2022-12-16T13:28:03.999Z,-1.45
2022-12-16T13:30:51.413Z,-1.45
2022-12-16T13:33:44.693Z,-1.55
2022-12-16T13:36:32.949Z,-1.53
2022-12-16T13:39:38.417Z,-1.50
2022-12-16T13:42:24.047Z,-1.54
2022-12-16T13:45:15.209Z,-1.60
2022-12-16T13:48:37.100Z,-1.65
2022-12-16T13:51:23.484Z,-1.66
2022-12-16T13:54:11.995Z,-1.68
2022-12-16T13:57:03.422Z,-1.61
2022-12-16T13:59:50.885Z,-1.61
2022-12-16T14:02:48.114Z,-1.67
2022-12-16T14:05:38.128Z,-1.62
2022-12-16T14:08:32.230Z,-1.69
2022-12-16T14:11:21.512Z,-1.67
2022-12-16T14:14:14.489Z,-1.68
2022-12-16T14:17:09.421Z,-1.79
2022-12-16T14:20:08.576Z,-1.54
2022-12-16T14:23:08.454Z,-1.48
2022-12-16T14:25:55.146Z,-1.47
2022-12-16T14:28:47.212Z,-1.37
2022-12-16T14:31:36.920Z,-1.35
2022-12-16T14:34:24.163Z,-1.34
2022-12-16T14:37:09.455Z,-1.35
2022-12-16T14:39:58.056Z,-1.35
2022-12-16T14:42:47.385Z,-1.35
2022-12-16T14:45:47.871Z,-1.38
2022-12-16T14:48:49.648Z,-1.39
2022-12-16T14:51:44.421Z,-1.46
2022-12-16T14:54:51.216Z,-1.44
2022-12-16T14:57:38.743Z,-1.52
2022-12-16T15:00:36.994Z,-1.44
2022-12-16T15:03:31.165Z,-1.47
2022-12-16T15:06:17.699Z,-1.39
2022-12-16T15:09:13.131Z,-1.43
2022-12-16T15:12:00.587Z,-1.57
2022-12-16T15:14:50.734Z,-1.52
2022-12-16T15:17:44.262Z,-1.44
2022-12-16T15:20:38.212Z,-1.52
2022-12-16T15:23:34.698Z,-1.43
2022-12-16T15:26:20.215Z,-1.45
2022-12-16T15:29:05.805Z,-1.48
2022-12-16T15:31:54.552Z,-1.43
2022-12-16T15:34:46.922Z,-1.41
2022-12-16T15:37:42.004Z,-1.46
2022-12-16T15:40:42.682Z,-1.36
2022-12-16T15:43:44.537Z,-1.39
2022-12-16T15:46:41.535Z,-1.42
2022-12-16T15:49:36.891Z,-1.47
2022-12-16T15:52:49.257Z,-1.46
2022-12-16T15:55:46.803Z,-1.42
2022-12-16T15:58:38.926Z,-1.45
2022-12-16T16:01:25.645Z,-1.45
2022-12-16T16:04:18.123Z,-1.51
2022-12-16T16:07:21.304Z,-1.53
2022-12-16T16:10:07.682Z,-1.48
2022-12-16T16:12:53.031Z,-1.39
2022-12-16T16:15:38.442Z,-1.42
2022-12-16T16:18:24.645Z,-1.48
2022-12-16T16:21:10.491Z,-1.47
2022-12-16T16:23:55.895Z,-1.50
2022-12-16T16:26:45.839Z,-1.60
2022-12-16T16:29:31.201Z,-1.51
2022-12-16T16:32:16.629Z,-1.50
2022-12-16T16:35:02.234Z,-1.51
2022-12-16T16:37:47.741Z,-1.57
2022-12-16T16:40:39.585Z,-1.58
2022-12-16T16:43:26.133Z,-1.57
2022-12-16T16:46:14.103Z,-1.55
2022-12-16T16:48:59.813Z,-1.54
2022-12-16T16:51:45.329Z,-1.60
2022-12-16T16:54:30.873Z,-1.54
2022-12-16T16:57:19.322Z,-1.59
2022-12-16T17:00:06.037Z,-1.58
2022-12-16T17:02:51.743Z,-1.59
2022-12-16T17:05:36.845Z,-1.65
2022-12-16T17:08:22.255Z,-1.64
2022-12-16T17:11:07.703Z,-1.64
2022-12-16T17:13:53.281Z,-1.71
2022-12-16T17:16:40.091Z,-1.83
2022-12-16T17:19:25.249Z,-1.84
2022-12-16T17:22:10.800Z,-1.86
2022-12-16T17:24:56.127Z,-1.97
2022-12-16T17:27:51.281Z,-1.97
2022-12-16T17:30:43.358Z,-2.15
2022-12-16T17:33:34.287Z,-2.22
2022-12-16T17:36:30.046Z,-2.27
2022-12-16T17:39:17.132Z,-2.31
2022-12-16T17:42:02.415Z,-2.33
2022-12-16T17:44:47.462Z,-2.41
2022-12-16T17:47:32.817Z,-2.51
2022-12-16T17:50:23.604Z,-2.54
2022-12-16T17:53:12.607Z,-2.64
2022-12-16T17:55:58.060Z,-2.63
2022-12-16T17:58:54.430Z,-2.63
2022-12-16T18:01:40.029Z,-2.63
2022-12-16T18:04:26.470Z,-2.66
2022-12-16T18:07:13.512Z,-2.77
2022-12-16T18:09:58.886Z,-2.84
2022-12-16T18:12:44.927Z,-2.84
2022-12-16T18:15:30.200Z,-2.84
2022-12-16T18:18:30.123Z,-2.88
2022-12-16T18:21:15.792Z,-2.93
2022-12-16T18:24:02.435Z,-2.98
2022-12-16T18:26:53.063Z,-3.10
2022-12-16T18:29:38.468Z,-3.03
2022-12-16T18:32:24.177Z,-3.10
2022-12-16T18:35:09.528Z,-3.13
2022-12-16T18:37:54.947Z,-3.17
2022-12-16T18:40:41.571Z,-3.19
2022-12-16T18:43:29.398Z,-3.27
2022-12-16T18:46:15.029Z,-3.33
2022-12-16T18:49:00.229Z,-3.38
2022-12-16T18:51:45.746Z,-3.42
2022-12-16T18:54:31.139Z,-3.52
2022-12-16T18:57:17.798Z,-3.47
2022-12-16T19:00:03.209Z,-3.53
2022-12-16T19:02:44.810Z,-3.51
2022-12-16T19:05:30.492Z,-3.60
2022-12-16T19:08:15.805Z,-3.66
2022-12-16T19:11:01.286Z,-3.69
2022-12-16T19:13:44.207Z,-3.70
2022-12-16T19:16:29.784Z,-3.76
2022-12-16T19:19:19.634Z,-3.83
2022-12-16T19:22:05.607Z,-3.85
2022-12-16T19:24:51.038Z,-3.92
2022-12-16T19:27:39.401Z,-4.08
2022-12-16T19:30:28.453Z,-4.05
2022-12-16T19:33:13.798Z,-4.02
2022-12-16T19:35:59.242Z,-4.03
2022-12-16T19:38:44.639Z,-4.04
2022-12-16T19:41:33.552Z,-4.03
2022-12-16T19:44:23.196Z,-4.09
2022-12-16T19:47:09.933Z,-4.04
2022-12-16T19:49:56.182Z,-4.04
2022-12-16T19:52:41.680Z,-4.05
2022-12-16T19:55:27.194Z,-4.07
2022-12-16T19:58:12.511Z,-4.14
2022-12-16T20:00:58.063Z,-4.14
2022-12-16T20:03:45.558Z,-4.13
2022-12-16T20:06:31.416Z,-4.18
2022-12-16T20:09:16.842Z,-4.13
2022-12-16T20:12:07.923Z,-4.12
2022-12-16T20:14:56.516Z,-4.08
2022-12-16T20:17:42.312Z,-4.18
2022-12-16T20:20:29.522Z,-4.06
2022-12-16T20:23:14.845Z,-4.05
2022-12-16T20:26:09.546Z,-3.97
2022-12-16T20:28:54.996Z,-3.96
2022-12-16T20:31:43.721Z,-3.90
2022-12-16T20:34:28.988Z,-3.93
2022-12-16T20:37:15.473Z,-3.86
2022-12-16T20:40:00.906Z,-3.92
2022-12-16T20:42:46.915Z,-3.88
2022-12-16T20:45:36.477Z,-3.80
2022-12-16T20:48:22.707Z,-3.79
2022-12-16T20:51:14.074Z,-3.80
2022-12-16T20:54:01.193Z,-3.78
2022-12-16T20:56:46.736Z,-3.83
2022-12-16T20:59:32.416Z,-3.80
2022-12-16T21:02:29.067Z,-3.79
2022-12-16T21:05:18.794Z,-3.83
2022-12-16T21:08:04.154Z,-3.82
2022-12-16T21:10:51.635Z,-3.74
2022-12-16T21:13:37.849Z,-3.80
2022-12-16T21:16:25.080Z,-3.73
2022-12-16T21:19:10.452Z,-3.66
2022-12-16T21:21:56.450Z,-3.65
2022-12-16T21:24:42.335Z,-3.58
2022-12-16T21:27:31.259Z,-3.60
2022-12-16T21:30:16.540Z,-3.60
2022-12-16T21:33:01.736Z,-3.52
2022-12-16T21:35:47.557Z,-3.53
2022-12-16T21:38:32.890Z,-3.52
2022-12-16T21:41:19.483Z,-3.52
2022-12-16T21:44:06.205Z,-3.46
2022-12-16T21:46:51.858Z,-3.47
2022-12-16T21:49:37.464Z,-3.43
2022-12-16T21:52:23.149Z,-3.39
2022-12-16T21:55:08.586Z,-3.30
2022-12-16T21:57:55.214Z,-3.25
2022-12-16T22:00:43.128Z,-3.27
2022-12-16T22:03:28.734Z,-3.29
2022-12-16T22:06:18.119Z,-3.31
2022-12-16T22:09:03.459Z,-3.33
2022-12-16T22:11:50.911Z,-3.36
2022-12-16T22:14:45.649Z,-3.38
2022-12-16T22:17:32.459Z,-3.38
2022-12-16T22:20:19.253Z,-3.36
2022-12-16T22:23:04.341Z,-3.32
2022-12-16T22:25:49.654Z,-3.29
2022-12-16T22:28:36.093Z,-3.26
2022-12-16T22:31:21.516Z,-3.25
2022-12-16T22:34:09.230Z,-3.26
2022-12-16T22:36:56.641Z,-3.30
2022-12-16T22:39:44.950Z,-3.32
2022-12-16T22:42:31.370Z,-3.38
2022-12-16T22:45:17.009Z,-3.45
2022-12-16T22:48:02.328Z,-3.30
2022-12-16T22:50:50.555Z,-3.39
2022-12-16T22:53:35.933Z,-3.42
2022-12-16T22:56:26.553Z,-3.55
2022-12-16T22:59:12.046Z,-3.48
2022-12-16T23:05:37.650Z,-3.68
2022-12-16T23:08:24.586Z,-3.66
2022-12-16T23:11:12.929Z,-3.72
2022-12-16T23:13:58.386Z,-3.76
2022-12-16T23:16:43.783Z,-4.01
2022-12-16T23:19:29.290Z,-3.88
2022-12-16T23:22:14.955Z,-3.97
2022-12-16T23:25:01.586Z,-3.89
2022-12-16T23:27:47.049Z,-3.94
2022-12-16T23:30:32.281Z,-3.95
2022-12-16T23:33:18.131Z,-3.99
2022-12-16T23:36:03.507Z,-4.00
2022-12-16T23:38:48.894Z,-3.97
2022-12-16T23:41:35.587Z,-4.01
2022-12-16T23:44:20.951Z,-4.01
2022-12-16T23:47:06.395Z,-4.18
2022-12-16T23:49:51.755Z,-4.21
2022-12-16T23:52:37.416Z,-4.19
2022-12-16T23:55:23.512Z,-4.35
2022-12-16T23:58:17.388Z,-4.29
